sensor_id;sensor_type;location;lat;lon;timestamp;P1;durP1;ratioP1;P2;durP2;ratioP2
5795;SDS011;2924;51.458;7.046;2023-04-29T00:00:03;87.77;;;43.03;;
5795;SDS011;2924;51.458;7.046;2023-04-29T00:02:30;78.70;;;41.73;;
5795;SDS011;2924;51.458;7.046;2023-04-29T00:04:57;84.93;;;43.07;;
5795;SDS011;2924;51.458;7.046;2023-04-29T00:07:22;78.33;;;41.13;;
5795;SDS011;2924;51.458;7.046;2023-04-29T00:09:48;81.30;;;42.37;;
5795;SDS011;2924;51.458;7.046;2023-04-29T00:12:13;87.20;;;41.10;;
5795;SDS011;2924;51.458;7.046;2023-04-29T00:14:39;71.10;;;40.10;;
5795;SDS011;2924;51.458;7.046;2023-04-29T00:17:07;68.20;;;35.47;;
5795;SDS011;2924;51.458;7.046;2023-04-29T00:19:33;69.43;;;35.73;;
5795;SDS011;2924;51.458;7.046;2023-04-29T00:21:58;63.03;;;33.23;;
5795;SDS011;2924;51.458;7.046;2023-04-29T00:24:25;65.63;;;34.40;;
5795;SDS011;2924;51.458;7.046;2023-04-29T00:26:51;70.43;;;32.73;;
5795;SDS011;2924;51.458;7.046;2023-04-29T00:29:16;67.00;;;34.43;;
5795;SDS011;2924;51.458;7.046;2023-04-29T00:31:42;77.20;;;33.27;;
5795;SDS011;2924;51.458;7.046;2023-04-29T00:34:08;69.00;;;31.97;;
5795;SDS011;2924;51.458;7.046;2023-04-29T00:36:34;70.53;;;31.50;;
5795;SDS011;2924;51.458;7.046;2023-04-29T00:39:00;72.07;;;32.27;;
5795;SDS011;2924;51.458;7.046;2023-04-29T00:41:26;74.37;;;34.73;;
5795;SDS011;2924;51.458;7.046;2023-04-29T00:43:51;65.30;;;32.10;;
5795;SDS011;2924;51.458;7.046;2023-04-29T00:46:17;77.47;;;35.03;;
5795;SDS011;2924;51.458;7.046;2023-04-29T00:48:42;83.27;;;34.97;;
5795;SDS011;2924;51.458;7.046;2023-04-29T00:51:08;76.97;;;33.83;;
5795;SDS011;2924;51.458;7.046;2023-04-29T00:53:34;92.87;;;41.47;;
5795;SDS011;2924;51.458;7.046;2023-04-29T00:56:01;102.67;;;43.40;;
5795;SDS011;2924;51.458;7.046;2023-04-29T00:58:28;97.23;;;43.43;;
5795;SDS011;2924;51.458;7.046;2023-04-29T01:01:00;100.67;;;43.80;;
5795;SDS011;2924;51.458;7.046;2023-04-29T01:03:27;110.00;;;45.47;;
5795;SDS011;2924;51.458;7.046;2023-04-29T01:06:19;83.57;;;38.63;;
5795;SDS011;2924;51.458;7.046;2023-04-29T01:11:34;99.30;;;39.87;;
5795;SDS011;2924;51.458;7.046;2023-04-29T01:14:06;94.60;;;39.57;;
5795;SDS011;2924;51.458;7.046;2023-04-29T01:16:35;98.70;;;41.13;;
5795;SDS011;2924;51.458;7.046;2023-04-29T01:19:05;102.37;;;43.30;;
5795;SDS011;2924;51.458;7.046;2023-04-29T01:21:50;111.20;;;44.57;;
5795;SDS011;2924;51.458;7.046;2023-04-29T01:24:16;113.70;;;45.60;;
5795;SDS011;2924;51.458;7.046;2023-04-29T01:26:46;111.63;;;45.63;;
5795;SDS011;2924;51.458;7.046;2023-04-29T01:29:34;109.10;;;46.73;;
5795;SDS011;2924;51.458;7.046;2023-04-29T01:32:12;111.20;;;45.40;;
5795;SDS011;2924;51.458;7.046;2023-04-29T01:34:55;112.20;;;45.83;;
5795;SDS011;2924;51.458;7.046;2023-04-29T01:42:47;129.23;;;47.97;;
5795;SDS011;2924;51.458;7.046;2023-04-29T01:45:26;128.17;;;48.20;;
5795;SDS011;2924;51.458;7.046;2023-04-29T01:47:53;128.80;;;46.53;;
5795;SDS011;2924;51.458;7.046;2023-04-29T01:50:22;139.37;;;49.90;;
5795;SDS011;2924;51.458;7.046;2023-04-29T01:52:48;153.10;;;50.60;;
5795;SDS011;2924;51.458;7.046;2023-04-29T01:55:14;145.53;;;50.40;;
5795;SDS011;2924;51.458;7.046;2023-04-29T01:57:39;151.73;;;51.80;;
5795;SDS011;2924;51.458;7.046;2023-04-29T02:00:05;145.37;;;51.43;;
5795;SDS011;2924;51.458;7.046;2023-04-29T02:02:32;177.10;;;57.50;;
5795;SDS011;2924;51.458;7.046;2023-04-29T02:04:58;178.27;;;57.60;;
5795;SDS011;2924;51.458;7.046;2023-04-29T02:07:24;176.57;;;56.17;;
5795;SDS011;2924;51.458;7.046;2023-04-29T02:09:49;193.70;;;59.40;;
5795;SDS011;2924;51.458;7.046;2023-04-29T02:12:15;198.07;;;58.43;;
5795;SDS011;2924;51.458;7.046;2023-04-29T02:14:41;184.33;;;53.90;;
5795;SDS011;2924;51.458;7.046;2023-04-29T02:17:07;177.33;;;56.83;;
5795;SDS011;2924;51.458;7.046;2023-04-29T02:19:33;161.33;;;51.27;;
5795;SDS011;2924;51.458;7.046;2023-04-29T02:21:59;168.73;;;52.80;;
5795;SDS011;2924;51.458;7.046;2023-04-29T02:24:24;166.50;;;50.90;;
5795;SDS011;2924;51.458;7.046;2023-04-29T02:26:50;156.03;;;50.07;;
5795;SDS011;2924;51.458;7.046;2023-04-29T02:29:15;145.77;;;47.90;;
5795;SDS011;2924;51.458;7.046;2023-04-29T02:31:41;162.50;;;51.07;;
5795;SDS011;2924;51.458;7.046;2023-04-29T02:34:06;159.57;;;50.27;;
5795;SDS011;2924;51.458;7.046;2023-04-29T02:36:32;148.37;;;50.80;;
5795;SDS011;2924;51.458;7.046;2023-04-29T02:38:58;142.43;;;46.73;;
5795;SDS011;2924;51.458;7.046;2023-04-29T02:41:24;126.67;;;44.20;;
5795;SDS011;2924;51.458;7.046;2023-04-29T02:43:50;133.13;;;46.67;;
5795;SDS011;2924;51.458;7.046;2023-04-29T02:46:16;125.00;;;44.57;;
5795;SDS011;2924;51.458;7.046;2023-04-29T02:48:42;113.30;;;41.37;;
5795;SDS011;2924;51.458;7.046;2023-04-29T02:51:08;87.73;;;34.40;;
5795;SDS011;2924;51.458;7.046;2023-04-29T02:53:34;99.60;;;36.90;;
5795;SDS011;2924;51.458;7.046;2023-04-29T02:56:00;95.73;;;36.03;;
5795;SDS011;2924;51.458;7.046;2023-04-29T02:58:26;94.73;;;33.70;;
5795;SDS011;2924;51.458;7.046;2023-04-29T03:00:51;88.30;;;32.67;;
5795;SDS011;2924;51.458;7.046;2023-04-29T03:03:17;86.30;;;34.17;;
5795;SDS011;2924;51.458;7.046;2023-04-29T03:05:43;90.70;;;33.40;;
5795;SDS011;2924;51.458;7.046;2023-04-29T03:08:08;73.97;;;31.73;;
5795;SDS011;2924;51.458;7.046;2023-04-29T03:10:34;84.47;;;33.17;;
5795;SDS011;2924;51.458;7.046;2023-04-29T03:13:00;102.90;;;36.57;;
5795;SDS011;2924;51.458;7.046;2023-04-29T03:15:25;102.47;;;36.17;;
5795;SDS011;2924;51.458;7.046;2023-04-29T03:17:51;92.00;;;35.63;;
5795;SDS011;2924;51.458;7.046;2023-04-29T03:20:17;88.43;;;35.23;;
5795;SDS011;2924;51.458;7.046;2023-04-29T03:22:43;96.67;;;35.33;;
5795;SDS011;2924;51.458;7.046;2023-04-29T03:25:08;99.00;;;34.87;;
5795;SDS011;2924;51.458;7.046;2023-04-29T03:27:34;93.33;;;33.70;;
5795;SDS011;2924;51.458;7.046;2023-04-29T03:30:00;84.50;;;32.83;;
5795;SDS011;2924;51.458;7.046;2023-04-29T03:32:26;80.73;;;30.57;;
5795;SDS011;2924;51.458;7.046;2023-04-29T03:34:52;78.03;;;32.83;;
5795;SDS011;2924;51.458;7.046;2023-04-29T03:37:18;91.83;;;33.57;;
5795;SDS011;2924;51.458;7.046;2023-04-29T03:39:44;96.10;;;34.40;;
5795;SDS011;2924;51.458;7.046;2023-04-29T03:42:10;77.10;;;30.80;;
5795;SDS011;2924;51.458;7.046;2023-04-29T03:44:36;78.70;;;31.23;;
5795;SDS011;2924;51.458;7.046;2023-04-29T03:47:01;81.23;;;32.53;;
5795;SDS011;2924;51.458;7.046;2023-04-29T03:49:27;80.67;;;31.63;;
5795;SDS011;2924;51.458;7.046;2023-04-29T03:51:52;86.47;;;34.10;;
5795;SDS011;2924;51.458;7.046;2023-04-29T03:54:18;77.10;;;32.53;;
5795;SDS011;2924;51.458;7.046;2023-04-29T03:56:44;79.40;;;34.90;;
5795;SDS011;2924;51.458;7.046;2023-04-29T03:59:09;105.40;;;35.83;;
5795;SDS011;2924;51.458;7.046;2023-04-29T04:01:35;74.30;;;32.73;;
5795;SDS011;2924;51.458;7.046;2023-04-29T04:04:00;85.00;;;35.50;;
5795;SDS011;2924;51.458;7.046;2023-04-29T04:06:26;86.27;;;37.40;;
5795;SDS011;2924;51.458;7.046;2023-04-29T04:08:52;88.50;;;35.20;;
5795;SDS011;2924;51.458;7.046;2023-04-29T04:11:17;90.10;;;34.87;;
5795;SDS011;2924;51.458;7.046;2023-04-29T04:13:43;79.47;;;33.07;;
5795;SDS011;2924;51.458;7.046;2023-04-29T04:16:09;76.30;;;32.23;;
5795;SDS011;2924;51.458;7.046;2023-04-29T04:18:35;87.50;;;35.43;;
5795;SDS011;2924;51.458;7.046;2023-04-29T04:21:05;87.27;;;34.87;;
5795;SDS011;2924;51.458;7.046;2023-04-29T04:23:34;79.90;;;32.20;;
5795;SDS011;2924;51.458;7.046;2023-04-29T04:26:01;69.00;;;31.73;;
5795;SDS011;2924;51.458;7.046;2023-04-29T04:28:27;82.93;;;35.10;;
5795;SDS011;2924;51.458;7.046;2023-04-29T04:30:53;67.17;;;29.03;;
5795;SDS011;2924;51.458;7.046;2023-04-29T04:33:18;75.67;;;31.47;;
5795;SDS011;2924;51.458;7.046;2023-04-29T04:35:44;71.57;;;30.50;;
5795;SDS011;2924;51.458;7.046;2023-04-29T04:38:09;83.47;;;33.50;;
5795;SDS011;2924;51.458;7.046;2023-04-29T04:40:35;81.23;;;34.17;;
5795;SDS011;2924;51.458;7.046;2023-04-29T04:43:01;82.37;;;36.07;;
5795;SDS011;2924;51.458;7.046;2023-04-29T04:45:27;81.53;;;37.90;;
5795;SDS011;2924;51.458;7.046;2023-04-29T04:47:54;78.20;;;33.60;;
5795;SDS011;2924;51.458;7.046;2023-04-29T04:50:19;81.60;;;34.47;;
5795;SDS011;2924;51.458;7.046;2023-04-29T04:52:45;70.83;;;33.93;;
5795;SDS011;2924;51.458;7.046;2023-04-29T04:55:10;79.63;;;33.87;;
5795;SDS011;2924;51.458;7.046;2023-04-29T04:57:36;68.90;;;31.30;;
5795;SDS011;2924;51.458;7.046;2023-04-29T05:00:02;91.77;;;35.13;;
5795;SDS011;2924;51.458;7.046;2023-04-29T05:02:29;69.73;;;31.30;;
5795;SDS011;2924;51.458;7.046;2023-04-29T05:04:54;78.60;;;32.20;;
5795;SDS011;2924;51.458;7.046;2023-04-29T05:07:20;73.00;;;31.47;;
5795;SDS011;2924;51.458;7.046;2023-04-29T05:09:45;85.30;;;34.20;;
5795;SDS011;2924;51.458;7.046;2023-04-29T05:12:11;80.47;;;33.40;;
5795;SDS011;2924;51.458;7.046;2023-04-29T05:14:37;72.40;;;32.13;;
5795;SDS011;2924;51.458;7.046;2023-04-29T05:17:02;83.70;;;33.03;;
5795;SDS011;2924;51.458;7.046;2023-04-29T05:19:28;73.93;;;32.30;;
5795;SDS011;2924;51.458;7.046;2023-04-29T05:21:53;82.77;;;33.77;;
5795;SDS011;2924;51.458;7.046;2023-04-29T05:24:19;68.60;;;30.87;;
5795;SDS011;2924;51.458;7.046;2023-04-29T05:26:44;72.00;;;31.00;;
5795;SDS011;2924;51.458;7.046;2023-04-29T05:29:11;70.60;;;34.20;;
5795;SDS011;2924;51.458;7.046;2023-04-29T05:31:36;69.20;;;32.10;;
5795;SDS011;2924;51.458;7.046;2023-04-29T05:34:03;76.73;;;31.87;;
5795;SDS011;2924;51.458;7.046;2023-04-29T05:36:29;73.33;;;32.03;;
5795;SDS011;2924;51.458;7.046;2023-04-29T05:38:54;78.57;;;34.53;;
5795;SDS011;2924;51.458;7.046;2023-04-29T05:41:20;70.10;;;32.10;;
5795;SDS011;2924;51.458;7.046;2023-04-29T05:43:48;70.00;;;34.20;;
5795;SDS011;2924;51.458;7.046;2023-04-29T05:46:13;69.93;;;31.60;;
5795;SDS011;2924;51.458;7.046;2023-04-29T05:48:40;73.03;;;31.90;;
5795;SDS011;2924;51.458;7.046;2023-04-29T05:51:06;84.80;;;34.60;;
5795;SDS011;2924;51.458;7.046;2023-04-29T05:53:31;68.00;;;32.63;;
5795;SDS011;2924;51.458;7.046;2023-04-29T05:55:57;66.50;;;31.27;;
5795;SDS011;2924;51.458;7.046;2023-04-29T05:58:23;70.53;;;32.80;;
5795;SDS011;2924;51.458;7.046;2023-04-29T06:00:49;83.57;;;33.40;;
5795;SDS011;2924;51.458;7.046;2023-04-29T06:03:15;68.17;;;32.77;;
5795;SDS011;2924;51.458;7.046;2023-04-29T06:05:41;58.37;;;29.80;;
5795;SDS011;2924;51.458;7.046;2023-04-29T06:08:06;64.50;;;30.10;;
5795;SDS011;2924;51.458;7.046;2023-04-29T06:10:32;68.83;;;32.90;;
5795;SDS011;2924;51.458;7.046;2023-04-29T06:12:58;71.97;;;32.50;;
5795;SDS011;2924;51.458;7.046;2023-04-29T06:15:24;66.53;;;32.23;;
5795;SDS011;2924;51.458;7.046;2023-04-29T06:17:49;58.73;;;30.20;;
5795;SDS011;2924;51.458;7.046;2023-04-29T06:20:16;65.47;;;32.67;;
5795;SDS011;2924;51.458;7.046;2023-04-29T06:22:41;53.90;;;29.30;;
5795;SDS011;2924;51.458;7.046;2023-04-29T06:25:07;55.37;;;29.50;;
5795;SDS011;2924;51.458;7.046;2023-04-29T06:27:36;56.30;;;31.37;;
5795;SDS011;2924;51.458;7.046;2023-04-29T06:30:01;59.70;;;29.87;;
5795;SDS011;2924;51.458;7.046;2023-04-29T06:32:27;60.17;;;31.70;;
5795;SDS011;2924;51.458;7.046;2023-04-29T06:34:59;54.37;;;30.57;;
5795;SDS011;2924;51.458;7.046;2023-04-29T06:37:25;55.37;;;29.87;;
5795;SDS011;2924;51.458;7.046;2023-04-29T06:39:51;50.80;;;29.13;;
5795;SDS011;2924;51.458;7.046;2023-04-29T06:42:17;51.57;;;28.00;;
5795;SDS011;2924;51.458;7.046;2023-04-29T06:44:42;51.90;;;27.83;;
5795;SDS011;2924;51.458;7.046;2023-04-29T06:47:08;42.70;;;26.83;;
5795;SDS011;2924;51.458;7.046;2023-04-29T06:49:34;55.03;;;28.70;;
5795;SDS011;2924;51.458;7.046;2023-04-29T06:51:59;49.17;;;28.50;;
5795;SDS011;2924;51.458;7.046;2023-04-29T06:54:26;50.63;;;26.27;;
5795;SDS011;2924;51.458;7.046;2023-04-29T06:56:52;44.40;;;25.93;;
5795;SDS011;2924;51.458;7.046;2023-04-29T06:59:18;42.27;;;25.40;;
5795;SDS011;2924;51.458;7.046;2023-04-29T07:01:43;51.30;;;27.30;;
5795;SDS011;2924;51.458;7.046;2023-04-29T07:04:09;41.73;;;25.00;;
5795;SDS011;2924;51.458;7.046;2023-04-29T07:06:35;41.90;;;26.10;;
5795;SDS011;2924;51.458;7.046;2023-04-29T07:09:01;42.93;;;25.70;;
5795;SDS011;2924;51.458;7.046;2023-04-29T07:11:27;44.77;;;27.37;;
5795;SDS011;2924;51.458;7.046;2023-04-29T07:13:53;51.57;;;28.50;;
5795;SDS011;2924;51.458;7.046;2023-04-29T07:16:18;44.87;;;27.50;;
5795;SDS011;2924;51.458;7.046;2023-04-29T07:18:46;50.07;;;28.87;;
5795;SDS011;2924;51.458;7.046;2023-04-29T07:21:12;49.40;;;29.20;;
5795;SDS011;2924;51.458;7.046;2023-04-29T07:23:37;49.70;;;26.40;;
5795;SDS011;2924;51.458;7.046;2023-04-29T07:26:13;43.27;;;26.87;;
5795;SDS011;2924;51.458;7.046;2023-04-29T07:28:42;42.53;;;25.57;;
5795;SDS011;2924;51.458;7.046;2023-04-29T07:31:08;50.80;;;27.03;;
5795;SDS011;2924;51.458;7.046;2023-04-29T07:33:35;44.97;;;27.60;;
5795;SDS011;2924;51.458;7.046;2023-04-29T07:36:01;57.00;;;30.07;;
5795;SDS011;2924;51.458;7.046;2023-04-29T07:38:27;53.77;;;30.60;;
5795;SDS011;2924;51.458;7.046;2023-04-29T07:40:53;60.43;;;33.90;;
5795;SDS011;2924;51.458;7.046;2023-04-29T07:43:19;51.40;;;29.87;;
5795;SDS011;2924;51.458;7.046;2023-04-29T07:45:45;51.43;;;29.80;;
5795;SDS011;2924;51.458;7.046;2023-04-29T07:48:11;56.30;;;29.73;;
5795;SDS011;2924;51.458;7.046;2023-04-29T07:50:37;57.77;;;31.07;;
5795;SDS011;2924;51.458;7.046;2023-04-29T07:53:02;56.73;;;33.03;;
5795;SDS011;2924;51.458;7.046;2023-04-29T07:55:28;60.93;;;31.60;;
5795;SDS011;2924;51.458;7.046;2023-04-29T07:57:55;57.20;;;33.60;;
5795;SDS011;2924;51.458;7.046;2023-04-29T08:00:21;72.57;;;34.47;;
5795;SDS011;2924;51.458;7.046;2023-04-29T08:02:54;63.90;;;35.87;;
5795;SDS011;2924;51.458;7.046;2023-04-29T08:05:20;67.57;;;37.73;;
5795;SDS011;2924;51.458;7.046;2023-04-29T08:07:47;64.47;;;35.80;;
5795;SDS011;2924;51.458;7.046;2023-04-29T08:10:13;63.80;;;33.13;;
5795;SDS011;2924;51.458;7.046;2023-04-29T08:12:38;72.63;;;37.27;;
5795;SDS011;2924;51.458;7.046;2023-04-29T08:15:05;75.70;;;36.63;;
5795;SDS011;2924;51.458;7.046;2023-04-29T08:17:31;75.60;;;34.53;;
5795;SDS011;2924;51.458;7.046;2023-04-29T08:19:56;62.27;;;34.47;;
5795;SDS011;2924;51.458;7.046;2023-04-29T08:22:22;81.90;;;36.30;;
5795;SDS011;2924;51.458;7.046;2023-04-29T08:24:48;86.23;;;39.00;;
5795;SDS011;2924;51.458;7.046;2023-04-29T08:27:13;62.23;;;34.90;;
5795;SDS011;2924;51.458;7.046;2023-04-29T08:29:39;66.63;;;34.20;;
5795;SDS011;2924;51.458;7.046;2023-04-29T08:32:06;83.87;;;40.60;;
5795;SDS011;2924;51.458;7.046;2023-04-29T08:34:32;70.60;;;36.70;;
5795;SDS011;2924;51.458;7.046;2023-04-29T08:36:58;78.70;;;38.13;;
5795;SDS011;2924;51.458;7.046;2023-04-29T08:39:23;85.50;;;37.37;;
5795;SDS011;2924;51.458;7.046;2023-04-29T08:41:50;70.63;;;37.20;;
5795;SDS011;2924;51.458;7.046;2023-04-29T08:44:19;75.10;;;36.10;;
5795;SDS011;2924;51.458;7.046;2023-04-29T08:46:45;69.30;;;35.80;;
5795;SDS011;2924;51.458;7.046;2023-04-29T08:49:12;67.53;;;35.80;;
5795;SDS011;2924;51.458;7.046;2023-04-29T08:51:38;77.63;;;37.37;;
5795;SDS011;2924;51.458;7.046;2023-04-29T08:54:03;71.33;;;38.80;;
5795;SDS011;2924;51.458;7.046;2023-04-29T08:56:30;67.77;;;34.30;;
5795;SDS011;2924;51.458;7.046;2023-04-29T08:58:57;65.33;;;33.10;;
5795;SDS011;2924;51.458;7.046;2023-04-29T09:01:28;69.00;;;34.53;;
5795;SDS011;2924;51.458;7.046;2023-04-29T09:07:01;61.63;;;32.97;;
5795;SDS011;2924;51.458;7.046;2023-04-29T09:09:29;71.33;;;34.00;;
5795;SDS011;2924;51.458;7.046;2023-04-29T09:11:56;65.80;;;34.07;;
5795;SDS011;2924;51.458;7.046;2023-04-29T09:14:22;72.30;;;36.00;;
5795;SDS011;2924;51.458;7.046;2023-04-29T09:16:49;82.40;;;35.10;;
5795;SDS011;2924;51.458;7.046;2023-04-29T09:19:28;64.83;;;34.70;;
5795;SDS011;2924;51.458;7.046;2023-04-29T09:21:57;58.20;;;32.20;;
5795;SDS011;2924;51.458;7.046;2023-04-29T09:24:27;61.20;;;34.10;;
5795;SDS011;2924;51.458;7.046;2023-04-29T09:26:55;60.07;;;32.13;;
5795;SDS011;2924;51.458;7.046;2023-04-29T09:29:21;50.03;;;30.03;;
5795;SDS011;2924;51.458;7.046;2023-04-29T09:31:46;59.47;;;31.43;;
5795;SDS011;2924;51.458;7.046;2023-04-29T09:34:13;57.53;;;33.40;;
5795;SDS011;2924;51.458;7.046;2023-04-29T09:39:16;48.27;;;29.33;;
5795;SDS011;2924;51.458;7.046;2023-04-29T09:44:19;47.27;;;29.30;;
5795;SDS011;2924;51.458;7.046;2023-04-29T09:51:54;44.47;;;29.63;;
5795;SDS011;2924;51.458;7.046;2023-04-29T09:54:26;51.63;;;29.53;;
5795;SDS011;2924;51.458;7.046;2023-04-29T09:56:53;48.27;;;30.60;;
5795;SDS011;2924;51.458;7.046;2023-04-29T09:59:20;47.10;;;27.93;;
5795;SDS011;2924;51.458;7.046;2023-04-29T10:01:51;40.63;;;27.20;;
5795;SDS011;2924;51.458;7.046;2023-04-29T10:04:18;37.77;;;24.60;;
5795;SDS011;2924;51.458;7.046;2023-04-29T10:06:49;36.33;;;25.60;;
5795;SDS011;2924;51.458;7.046;2023-04-29T10:09:16;47.00;;;25.40;;
5795;SDS011;2924;51.458;7.046;2023-04-29T10:11:44;44.17;;;25.60;;
5795;SDS011;2924;51.458;7.046;2023-04-29T10:14:17;34.97;;;23.80;;
5795;SDS011;2924;51.458;7.046;2023-04-29T10:16:49;35.13;;;22.70;;
5795;SDS011;2924;51.458;7.046;2023-04-29T10:21:52;36.57;;;23.20;;
5795;SDS011;2924;51.458;7.046;2023-04-29T10:24:20;36.90;;;24.37;;
5795;SDS011;2924;51.458;7.046;2023-04-29T10:26:47;32.37;;;21.53;;
5795;SDS011;2924;51.458;7.046;2023-04-29T10:29:16;30.40;;;20.57;;
5795;SDS011;2924;51.458;7.046;2023-04-29T10:31:42;32.90;;;22.87;;
5795;SDS011;2924;51.458;7.046;2023-04-29T10:34:10;35.17;;;22.87;;
5795;SDS011;2924;51.458;7.046;2023-04-29T10:36:37;27.93;;;21.03;;
5795;SDS011;2924;51.458;7.046;2023-04-29T10:39:03;28.33;;;20.03;;
5795;SDS011;2924;51.458;7.046;2023-04-29T10:42:04;36.80;;;22.50;;
5795;SDS011;2924;51.458;7.046;2023-04-29T10:44:23;26.60;;;19.67;;
5795;SDS011;2924;51.458;7.046;2023-04-29T10:46:50;29.20;;;21.30;;
5795;SDS011;2924;51.458;7.046;2023-04-29T10:50:00;31.80;;;21.70;;
5795;SDS011;2924;51.458;7.046;2023-04-29T10:52:28;30.53;;;21.00;;
5795;SDS011;2924;51.458;7.046;2023-04-29T10:55:03;21.07;;;17.10;;
5795;SDS011;2924;51.458;7.046;2023-04-29T10:57:29;28.60;;;20.00;;
5795;SDS011;2924;51.458;7.046;2023-04-29T10:59:55;30.63;;;20.70;;
5795;SDS011;2924;51.458;7.046;2023-04-29T11:02:20;27.83;;;19.33;;
5795;SDS011;2924;51.458;7.046;2023-04-29T11:07:32;30.23;;;18.30;;
5795;SDS011;2924;51.458;7.046;2023-04-29T11:09:57;29.13;;;19.97;;
5795;SDS011;2924;51.458;7.046;2023-04-29T11:12:23;29.37;;;20.87;;
5795;SDS011;2924;51.458;7.046;2023-04-29T11:14:49;23.47;;;18.43;;
5795;SDS011;2924;51.458;7.046;2023-04-29T11:17:15;20.70;;;16.20;;
5795;SDS011;2924;51.458;7.046;2023-04-29T11:19:45;18.47;;;15.23;;
5795;SDS011;2924;51.458;7.046;2023-04-29T11:22:23;27.73;;;18.57;;
5795;SDS011;2924;51.458;7.046;2023-04-29T11:27:19;26.60;;;16.43;;
5795;SDS011;2924;51.458;7.046;2023-04-29T11:29:49;17.93;;;15.13;;
5795;SDS011;2924;51.458;7.046;2023-04-29T11:34:54;22.20;;;13.57;;
5795;SDS011;2924;51.458;7.046;2023-04-29T11:37:21;23.97;;;16.47;;
5795;SDS011;2924;51.458;7.046;2023-04-29T11:39:48;19.33;;;15.60;;
5795;SDS011;2924;51.458;7.046;2023-04-29T11:42:18;16.73;;;13.03;;
5795;SDS011;2924;51.458;7.046;2023-04-29T11:44:45;20.53;;;15.93;;
5795;SDS011;2924;51.458;7.046;2023-04-29T11:47:10;18.83;;;14.33;;
5795;SDS011;2924;51.458;7.046;2023-04-29T11:49:36;19.23;;;15.70;;
5795;SDS011;2924;51.458;7.046;2023-04-29T11:52:02;17.17;;;14.20;;
5795;SDS011;2924;51.458;7.046;2023-04-29T11:54:28;20.00;;;16.07;;
5795;SDS011;2924;51.458;7.046;2023-04-29T11:56:54;20.93;;;14.00;;
5795;SDS011;2924;51.458;7.046;2023-04-29T11:59:20;17.70;;;15.77;;
5795;SDS011;2924;51.458;7.046;2023-04-29T12:01:47;19.50;;;15.50;;
5795;SDS011;2924;51.458;7.046;2023-04-29T12:04:16;22.50;;;14.60;;
5795;SDS011;2924;51.458;7.046;2023-04-29T12:06:43;29.00;;;16.50;;
5795;SDS011;2924;51.458;7.046;2023-04-29T12:09:09;19.47;;;15.23;;
5795;SDS011;2924;51.458;7.046;2023-04-29T12:11:35;19.97;;;14.80;;
5795;SDS011;2924;51.458;7.046;2023-04-29T12:14:02;15.90;;;13.17;;
5795;SDS011;2924;51.458;7.046;2023-04-29T12:16:30;22.30;;;14.33;;
5795;SDS011;2924;51.458;7.046;2023-04-29T12:18:56;18.13;;;14.80;;
5795;SDS011;2924;51.458;7.046;2023-04-29T12:21:23;17.60;;;14.60;;
5795;SDS011;2924;51.458;7.046;2023-04-29T12:23:49;15.10;;;13.03;;
5795;SDS011;2924;51.458;7.046;2023-04-29T12:26:16;20.17;;;13.80;;
5795;SDS011;2924;51.458;7.046;2023-04-29T12:28:43;16.83;;;14.70;;
5795;SDS011;2924;51.458;7.046;2023-04-29T12:31:09;16.57;;;11.63;;
5795;SDS011;2924;51.458;7.046;2023-04-29T12:33:40;16.77;;;13.23;;
5795;SDS011;2924;51.458;7.046;2023-04-29T12:36:14;16.57;;;11.93;;
5795;SDS011;2924;51.458;7.046;2023-04-29T12:38:41;12.40;;;10.70;;
5795;SDS011;2924;51.458;7.046;2023-04-29T12:41:07;16.00;;;10.60;;
5795;SDS011;2924;51.458;7.046;2023-04-29T12:43:32;11.50;;;10.30;;
5795;SDS011;2924;51.458;7.046;2023-04-29T12:46:01;8.80;;;7.83;;
5795;SDS011;2924;51.458;7.046;2023-04-29T12:48:32;11.40;;;9.50;;
5795;SDS011;2924;51.458;7.046;2023-04-29T12:50:59;15.97;;;10.00;;
5795;SDS011;2924;51.458;7.046;2023-04-29T12:53:25;19.17;;;9.07;;
5795;SDS011;2924;51.458;7.046;2023-04-29T12:55:53;14.33;;;10.13;;
5795;SDS011;2924;51.458;7.046;2023-04-29T12:58:18;12.63;;;9.60;;
5795;SDS011;2924;51.458;7.046;2023-04-29T13:00:44;13.83;;;10.10;;
5795;SDS011;2924;51.458;7.046;2023-04-29T13:03:10;14.00;;;10.77;;
5795;SDS011;2924;51.458;7.046;2023-04-29T13:05:35;14.13;;;10.73;;
5795;SDS011;2924;51.458;7.046;2023-04-29T13:08:01;9.00;;;7.07;;
5795;SDS011;2924;51.458;7.046;2023-04-29T13:10:27;12.13;;;8.83;;
5795;SDS011;2924;51.458;7.046;2023-04-29T13:12:53;11.30;;;10.10;;
5795;SDS011;2924;51.458;7.046;2023-04-29T13:15:19;11.63;;;8.80;;
5795;SDS011;2924;51.458;7.046;2023-04-29T13:17:45;11.50;;;9.00;;
5795;SDS011;2924;51.458;7.046;2023-04-29T13:20:11;12.20;;;8.83;;
5795;SDS011;2924;51.458;7.046;2023-04-29T13:22:37;10.10;;;8.80;;
5795;SDS011;2924;51.458;7.046;2023-04-29T13:25:02;9.60;;;8.60;;
5795;SDS011;2924;51.458;7.046;2023-04-29T13:27:29;10.73;;;7.90;;
5795;SDS011;2924;51.458;7.046;2023-04-29T13:29:54;10.87;;;8.27;;
5795;SDS011;2924;51.458;7.046;2023-04-29T13:32:20;17.60;;;9.40;;
5795;SDS011;2924;51.458;7.046;2023-04-29T13:34:48;10.53;;;9.43;;
5795;SDS011;2924;51.458;7.046;2023-04-29T13:37:16;9.50;;;8.10;;
5795;SDS011;2924;51.458;7.046;2023-04-29T13:39:41;11.23;;;8.03;;
5795;SDS011;2924;51.458;7.046;2023-04-29T13:42:07;13.03;;;9.03;;
5795;SDS011;2924;51.458;7.046;2023-04-29T13:44:34;8.93;;;8.03;;
5795;SDS011;2924;51.458;7.046;2023-04-29T13:47:00;11.53;;;8.20;;
5795;SDS011;2924;51.458;7.046;2023-04-29T13:49:26;12.27;;;8.17;;
5795;SDS011;2924;51.458;7.046;2023-04-29T13:51:51;9.13;;;6.60;;
5795;SDS011;2924;51.458;7.046;2023-04-29T13:54:17;18.37;;;8.07;;
5795;SDS011;2924;51.458;7.046;2023-04-29T13:56:45;21.07;;;8.70;;
5795;SDS011;2924;51.458;7.046;2023-04-29T13:59:11;11.37;;;8.40;;
5795;SDS011;2924;51.458;7.046;2023-04-29T14:01:37;18.10;;;8.33;;
5795;SDS011;2924;51.458;7.046;2023-04-29T14:04:02;11.87;;;8.73;;
5795;SDS011;2924;51.458;7.046;2023-04-29T14:06:28;13.33;;;8.10;;
5795;SDS011;2924;51.458;7.046;2023-04-29T14:08:56;9.73;;;7.30;;
5795;SDS011;2924;51.458;7.046;2023-04-29T14:11:22;8.87;;;5.90;;
5795;SDS011;2924;51.458;7.046;2023-04-29T14:13:47;7.80;;;7.00;;
5795;SDS011;2924;51.458;7.046;2023-04-29T14:16:13;8.90;;;7.37;;
5795;SDS011;2924;51.458;7.046;2023-04-29T14:18:38;8.27;;;6.83;;
5795;SDS011;2924;51.458;7.046;2023-04-29T14:21:04;11.53;;;7.83;;
5795;SDS011;2924;51.458;7.046;2023-04-29T14:23:30;10.00;;;7.67;;
5795;SDS011;2924;51.458;7.046;2023-04-29T14:25:55;11.17;;;7.07;;
5795;SDS011;2924;51.458;7.046;2023-04-29T14:28:21;12.13;;;7.30;;
5795;SDS011;2924;51.458;7.046;2023-04-29T14:30:47;12.03;;;8.30;;
5795;SDS011;2924;51.458;7.046;2023-04-29T14:33:12;12.07;;;6.90;;
5795;SDS011;2924;51.458;7.046;2023-04-29T14:35:38;8.27;;;7.07;;
5795;SDS011;2924;51.458;7.046;2023-04-29T14:38:03;11.67;;;7.43;;
5795;SDS011;2924;51.458;7.046;2023-04-29T14:40:29;10.30;;;7.50;;
5795;SDS011;2924;51.458;7.046;2023-04-29T14:42:54;9.17;;;6.93;;
5795;SDS011;2924;51.458;7.046;2023-04-29T14:45:20;7.03;;;6.23;;
5795;SDS011;2924;51.458;7.046;2023-04-29T14:47:45;11.53;;;5.73;;
5795;SDS011;2924;51.458;7.046;2023-04-29T14:50:11;9.97;;;6.70;;
5795;SDS011;2924;51.458;7.046;2023-04-29T14:52:36;10.40;;;7.00;;
5795;SDS011;2924;51.458;7.046;2023-04-29T14:55:02;10.40;;;7.07;;
5795;SDS011;2924;51.458;7.046;2023-04-29T14:57:28;8.63;;;6.80;;
5795;SDS011;2924;51.458;7.046;2023-04-29T14:59:54;9.07;;;6.60;;
5795;SDS011;2924;51.458;7.046;2023-04-29T15:02:20;8.43;;;7.10;;
5795;SDS011;2924;51.458;7.046;2023-04-29T15:04:46;11.30;;;6.20;;
5795;SDS011;2924;51.458;7.046;2023-04-29T15:07:11;8.50;;;7.10;;
5795;SDS011;2924;51.458;7.046;2023-04-29T15:09:37;9.83;;;6.87;;
5795;SDS011;2924;51.458;7.046;2023-04-29T15:12:03;6.60;;;5.73;;
5795;SDS011;2924;51.458;7.046;2023-04-29T15:14:29;8.63;;;5.97;;
5795;SDS011;2924;51.458;7.046;2023-04-29T15:16:55;11.30;;;6.63;;